createdAt,value
2019-03-23T00:02:22.395Z,121.37
2019-03-23T00:04:51.041Z,129.07
2019-03-23T00:07:19.696Z,111.53
2019-03-23T00:09:48.088Z,106.77
2019-03-23T00:12:17.455Z,127.07
2019-03-23T00:14:46.247Z,111.37
2019-03-23T00:17:15.328Z,98.93
2019-03-23T00:19:44.125Z,119.07
2019-03-23T00:22:12.748Z,93.70
2019-03-23T00:24:41.151Z,96.10
2019-03-23T00:27:09.540Z,116.23
2019-03-23T00:29:37.940Z,91.43
2019-03-23T00:32:06.571Z,91.77
2019-03-23T00:34:34.978Z,80.20
2019-03-23T00:37:03.362Z,101.47
2019-03-23T00:39:32.055Z,87.43
2019-03-23T00:42:00.504Z,77.27
2019-03-23T00:44:29.132Z,87.93
2019-03-23T00:46:57.783Z,94.00
2019-03-23T00:49:26.170Z,84.63
2019-03-23T00:51:54.555Z,93.97
2019-03-23T00:54:23.017Z,82.93
2019-03-23T00:56:51.403Z,89.37
2019-03-23T00:59:19.800Z,86.57
2019-03-23T01:01:48.514Z,78.73
2019-03-23T01:04:17.152Z,89.07
2019-03-23T01:06:52.014Z,92.33
2019-03-23T01:09:16.119Z,82.77
2019-03-23T01:11:44.518Z,87.57
2019-03-23T01:14:13.170Z,84.20
2019-03-23T01:16:41.594Z,104.50
2019-03-23T01:19:10.211Z,87.67
2019-03-23T01:21:38.855Z,79.72
2019-03-23T01:24:07.251Z,84.73
2019-03-23T01:26:35.700Z,86.23
2019-03-23T01:29:04.100Z,87.43
2019-03-23T01:31:32.720Z,93.93
2019-03-23T01:34:01.340Z,87.53
2019-03-23T01:36:29.975Z,89.07
2019-03-23T01:38:58.364Z,78.33
2019-03-23T01:41:26.821Z,96.83
2019-03-23T01:43:55.204Z,72.73
2019-03-23T01:46:23.611Z,83.17
2019-03-23T01:48:52.243Z,84.80
2019-03-23T01:51:20.629Z,91.63
2019-03-23T01:53:49.028Z,94.10
2019-03-23T01:56:17.433Z,98.10
2019-03-23T01:58:46.073Z,107.63
2019-03-23T02:01:14.720Z,90.17
2019-03-23T02:03:43.352Z,96.47
2019-03-23T02:06:11.995Z,114.97
2019-03-23T02:08:40.621Z,97.53
2019-03-23T02:11:09.024Z,103.37
2019-03-23T02:13:37.416Z,100.97
2019-03-23T02:16:05.882Z,96.00
2019-03-23T02:18:34.277Z,88.47
2019-03-23T02:21:02.683Z,104.73
2019-03-23T02:23:31.317Z,101.80
2019-03-23T02:25:59.952Z,97.17
2019-03-23T02:28:28.342Z,99.67
2019-03-23T02:30:56.796Z,97.97
2019-03-23T02:33:25.438Z,101.03
2019-03-23T02:35:53.842Z,101.03
2019-03-23T02:38:22.228Z,99.00
2019-03-23T02:40:50.887Z,112.07
2019-03-23T02:43:19.320Z,95.17
2019-03-23T02:45:47.969Z,116.67
2019-03-23T02:48:16.363Z,97.67
2019-03-23T02:50:45.005Z,96.47
2019-03-23T02:53:13.400Z,112.87
2019-03-23T02:55:41.828Z,102.32
2019-03-23T02:58:10.224Z,106.87
2019-03-23T03:00:38.622Z,94.55
2019-03-23T03:03:07.262Z,107.63
2019-03-23T03:05:35.907Z,99.55
2019-03-23T03:08:04.314Z,107.05
2019-03-23T03:10:38.741Z,97.08
2019-03-23T03:13:07.496Z,111.03
2019-03-23T03:15:36.198Z,106.13
2019-03-23T03:18:06.282Z,100.18
2019-03-23T03:20:35.107Z,103.77
2019-03-23T03:23:03.810Z,101.62
2019-03-23T03:25:32.205Z,99.23
2019-03-23T03:28:00.612Z,94.35
2019-03-23T03:30:29.287Z,100.87
2019-03-23T03:32:57.875Z,98.60
2019-03-23T03:35:26.520Z,109.92
2019-03-23T03:37:56.894Z,101.62
2019-03-23T03:40:25.288Z,117.57
2019-03-23T03:42:53.686Z,100.92
2019-03-23T03:45:24.864Z,98.23
2019-03-23T03:47:53.311Z,97.27
2019-03-23T03:50:21.780Z,106.95
2019-03-23T03:52:50.181Z,107.10
2019-03-23T03:55:18.593Z,105.90
2019-03-23T03:57:47.253Z,101.62
2019-03-23T04:00:15.970Z,83.78
2019-03-23T04:02:44.377Z,100.53
2019-03-23T04:05:12.853Z,109.03
2019-03-23T04:07:41.483Z,101.43
2019-03-23T04:10:11.073Z,114.00
2019-03-23T04:12:39.540Z,127.30
2019-03-23T04:15:09.496Z,100.00
2019-03-23T04:17:37.883Z,91.60
2019-03-23T04:20:07.197Z,109.67
2019-03-23T04:22:35.813Z,107.27
2019-03-23T04:25:07.025Z,95.75
2019-03-23T04:27:35.670Z,99.55
2019-03-23T04:30:06.258Z,103.92
2019-03-23T04:32:35.048Z,86.80
2019-03-23T04:35:04.555Z,98.52
2019-03-23T04:37:32.948Z,92.53
2019-03-23T04:40:01.594Z,110.17
2019-03-23T04:42:30.224Z,99.25
2019-03-23T04:44:58.877Z,105.03
2019-03-23T04:47:27.528Z,118.70
2019-03-23T04:49:56.166Z,97.85
2019-03-23T04:52:24.559Z,93.72
2019-03-23T04:54:52.972Z,100.10
2019-03-23T04:57:21.370Z,111.42
2019-03-23T04:59:50.085Z,104.90
2019-03-23T05:02:18.730Z,99.85
2019-03-23T05:04:47.371Z,96.42
2019-03-23T05:07:16.014Z,117.17
2019-03-23T05:09:44.416Z,88.35
2019-03-23T05:12:13.060Z,103.42
2019-03-23T05:14:41.511Z,116.15
2019-03-23T05:17:10.108Z,95.28
2019-03-23T05:19:38.756Z,108.92
2019-03-23T05:22:07.392Z,103.67
2019-03-23T05:24:36.029Z,93.72
2019-03-23T05:27:04.430Z,108.15
2019-03-23T05:29:32.886Z,97.15
2019-03-23T05:32:01.284Z,99.28
2019-03-23T05:34:29.695Z,102.50
2019-03-23T05:36:58.090Z,94.28
2019-03-23T05:39:26.614Z,90.77
2019-03-23T05:41:55.250Z,93.03
2019-03-23T05:44:23.679Z,108.55
2019-03-23T05:46:54.237Z,96.37
2019-03-23T05:49:22.440Z,100.12
2019-03-23T05:51:50.831Z,96.25
2019-03-23T05:54:19.244Z,89.67
2019-03-23T05:56:47.637Z,98.42
2019-03-23T05:59:16.043Z,108.17
2019-03-23T06:01:44.677Z,103.15
2019-03-23T06:04:13.089Z,106.90
2019-03-23T06:06:41.479Z,97.72
2019-03-23T06:09:09.884Z,96.97
2019-03-23T06:11:38.292Z,96.08
2019-03-23T06:14:06.747Z,92.35
2019-03-23T06:16:35.211Z,92.40
2019-03-23T06:19:03.603Z,92.42
2019-03-23T06:21:32.008Z,96.87
2019-03-23T06:24:00.644Z,100.72
2019-03-23T06:26:29.319Z,90.47
2019-03-23T06:28:57.712Z,93.27
2019-03-23T06:31:26.333Z,96.13
2019-03-23T06:33:54.987Z,100.10
2019-03-23T06:36:23.386Z,80.67
2019-03-23T06:38:51.774Z,92.40
2019-03-23T06:41:20.431Z,85.85
2019-03-23T06:43:48.823Z,97.02
2019-03-23T06:46:17.454Z,89.03
2019-03-23T06:48:45.862Z,99.13
2019-03-23T06:51:14.475Z,81.10
2019-03-23T06:53:43.107Z,83.47
2019-03-23T06:56:11.746Z,89.63
2019-03-23T06:58:40.128Z,82.97
2019-03-23T07:01:08.511Z,82.50
2019-03-23T07:03:36.907Z,84.13
2019-03-23T07:06:05.290Z,80.73
2019-03-23T07:08:33.675Z,83.60
2019-03-23T07:11:02.327Z,88.50
2019-03-23T07:13:30.706Z,91.60
2019-03-23T07:15:59.088Z,83.33
2019-03-23T07:18:27.490Z,86.03
2019-03-23T07:20:56.109Z,81.17
2019-03-23T07:23:24.729Z,92.70
2019-03-23T07:25:53.365Z,80.07
2019-03-23T07:28:21.745Z,81.77
2019-03-23T07:30:50.127Z,90.60
2019-03-23T07:33:18.529Z,82.97
2019-03-23T07:35:47.223Z,83.93
2019-03-23T07:38:15.609Z,81.13
2019-03-23T07:40:44.243Z,94.73
2019-03-23T07:43:12.863Z,78.80
2019-03-23T07:45:41.246Z,83.87
2019-03-23T07:48:09.649Z,101.13
2019-03-23T07:50:38.038Z,107.53
2019-03-23T07:53:06.738Z,85.40
2019-03-23T07:55:35.138Z,89.77
2019-03-23T07:58:03.762Z,81.60
2019-03-23T08:00:32.196Z,94.07
2019-03-23T08:03:00.594Z,90.83
2019-03-23T08:05:28.978Z,84.53
2019-03-23T08:07:57.358Z,84.13
2019-03-23T08:10:29.948Z,102.27
2019-03-23T08:12:58.323Z,90.80
2019-03-23T08:15:27.022Z,78.87
2019-03-23T08:17:55.880Z,105.87
2019-03-23T08:20:24.811Z,83.53
2019-03-23T08:22:54.262Z,85.00
2019-03-23T08:25:22.900Z,85.23
2019-03-23T08:27:51.290Z,80.23
2019-03-23T08:30:19.661Z,89.87
2019-03-23T08:32:48.310Z,94.97
2019-03-23T08:35:16.922Z,82.47
2019-03-23T08:37:45.548Z,81.77
2019-03-23T08:40:14.015Z,74.60
2019-03-23T08:42:42.462Z,80.93
2019-03-23T08:45:11.152Z,88.17
2019-03-23T08:47:39.800Z,97.23
2019-03-23T08:50:08.254Z,82.27
2019-03-23T08:52:36.634Z,83.13
2019-03-23T08:55:06.271Z,87.53
2019-03-23T08:57:34.722Z,87.43
2019-03-23T09:00:03.345Z,84.40
2019-03-23T09:02:31.748Z,88.03
2019-03-23T09:05:00.389Z,80.23
2019-03-23T09:07:28.738Z,105.33
2019-03-23T09:09:59.443Z,84.57
2019-03-23T09:12:27.494Z,80.03
2019-03-23T09:14:56.111Z,84.90
2019-03-23T09:17:24.743Z,85.93
2019-03-23T09:19:53.132Z,98.90
2019-03-23T09:22:21.763Z,78.97
2019-03-23T09:24:50.405Z,88.47
2019-03-23T09:27:19.026Z,76.53
2019-03-23T09:29:47.417Z,75.37
2019-03-23T09:32:16.067Z,100.27
2019-03-23T09:34:44.696Z,78.03
2019-03-23T09:37:13.329Z,73.83
2019-03-23T09:39:41.972Z,79.40
2019-03-23T09:42:10.364Z,80.53
2019-03-23T09:44:38.998Z,93.83
2019-03-23T09:47:07.639Z,85.03
2019-03-23T09:49:36.259Z,80.57
2019-03-23T09:52:04.646Z,84.60
2019-03-23T09:54:33.285Z,75.37
2019-03-23T09:57:01.667Z,81.83
2019-03-23T09:59:30.290Z,90.73
2019-03-23T10:01:58.693Z,84.53
2019-03-23T10:04:27.332Z,99.47
2019-03-23T10:06:55.718Z,87.70
2019-03-23T10:09:24.125Z,82.33
2019-03-23T10:11:52.509Z,85.20
2019-03-23T10:14:20.891Z,84.60
2019-03-23T10:16:49.297Z,103.33
2019-03-23T10:19:17.689Z,90.90
2019-03-23T10:21:46.079Z,93.30
2019-03-23T10:24:14.710Z,95.67
2019-03-23T10:26:43.334Z,93.33
2019-03-23T10:29:11.729Z,106.20
2019-03-23T10:31:40.371Z,92.87
2019-03-23T10:34:09.079Z,95.27
2019-03-23T10:36:37.467Z,116.47
2019-03-23T10:39:06.852Z,99.43
2019-03-23T10:41:37.572Z,94.97
2019-03-23T10:44:05.732Z,97.97
2019-03-23T10:46:34.356Z,94.90
2019-03-23T10:49:02.989Z,101.00
2019-03-23T10:51:31.624Z,89.17
2019-03-23T10:54:00.254Z,91.53
2019-03-23T10:56:28.660Z,87.10
2019-03-23T10:58:57.046Z,94.00
2019-03-23T11:01:25.669Z,91.63
2019-03-23T11:03:54.069Z,81.10
2019-03-23T11:06:22.455Z,86.67
2019-03-23T11:08:50.861Z,93.33
2019-03-23T11:11:19.248Z,80.50
2019-03-23T11:13:47.632Z,90.27
2019-03-23T11:16:16.269Z,82.47
2019-03-23T11:18:44.898Z,77.33
2019-03-23T11:21:13.300Z,86.57
2019-03-23T11:23:41.924Z,81.43
2019-03-23T11:26:10.543Z,88.73
2019-03-23T11:28:38.944Z,96.63
2019-03-23T11:31:07.334Z,92.67
2019-03-23T11:33:35.739Z,86.23
2019-03-23T11:36:04.377Z,104.63
2019-03-23T11:38:32.779Z,96.80
2019-03-23T11:41:01.164Z,95.37
2019-03-23T11:43:29.800Z,89.73
2019-03-23T11:45:58.196Z,96.37
2019-03-23T11:48:26.641Z,89.53
2019-03-23T11:50:55.044Z,97.73
2019-03-23T11:53:23.669Z,99.70
2019-03-23T11:55:52.291Z,89.60
2019-03-23T11:58:20.927Z,97.07
2019-03-23T12:00:49.318Z,95.23
2019-03-23T12:03:17.962Z,92.27
2019-03-23T12:05:46.591Z,86.57
2019-03-23T12:08:15.217Z,102.40
2019-03-23T12:10:43.864Z,93.77
2019-03-23T12:13:12.260Z,101.10
2019-03-23T12:15:40.891Z,91.37
2019-03-23T12:18:09.517Z,98.63
2019-03-23T12:20:37.909Z,86.23
2019-03-23T12:23:06.303Z,91.60
2019-03-23T12:25:34.686Z,87.87
2019-03-23T12:28:03.090Z,103.13
2019-03-23T12:30:31.480Z,102.27
2019-03-23T12:32:59.877Z,100.33
2019-03-23T12:35:28.280Z,88.50
2019-03-23T12:37:56.668Z,81.10
2019-03-23T12:40:25.078Z,85.90
2019-03-23T12:42:53.472Z,95.50
2019-03-23T12:45:21.856Z,94.63
2019-03-23T12:47:50.258Z,97.87
2019-03-23T12:50:18.648Z,86.70
2019-03-23T12:52:47.055Z,91.27
2019-03-23T12:55:15.677Z,85.07
2019-03-23T12:57:44.070Z,81.37
2019-03-23T13:00:14.898Z,75.70
2019-03-23T13:02:43.353Z,79.67
2019-03-23T13:05:12.128Z,75.80
2019-03-23T13:07:40.566Z,87.10
2019-03-23T13:10:13.472Z,86.67
2019-03-23T13:12:42.174Z,88.57
2019-03-23T13:15:16.032Z,90.10
2019-03-23T13:17:44.439Z,88.53
2019-03-23T13:20:13.461Z,86.30
2019-03-23T13:22:42.024Z,94.83
2019-03-23T13:25:10.894Z,74.40
2019-03-23T13:27:39.347Z,78.07
2019-03-23T13:30:10.786Z,75.17
2019-03-23T13:32:39.487Z,78.17
2019-03-23T13:35:08.172Z,78.33
2019-03-23T13:37:36.567Z,98.50
2019-03-23T13:40:07.465Z,75.90
2019-03-23T13:42:35.864Z,84.23
2019-03-23T13:45:07.028Z,86.30
2019-03-23T13:47:35.720Z,81.20
2019-03-23T13:50:05.511Z,80.97
2019-03-23T13:52:33.895Z,81.17
2019-03-23T13:55:02.300Z,79.80
2019-03-23T13:57:30.920Z,72.97
2019-03-23T13:59:59.547Z,79.17
2019-03-23T14:02:28.037Z,80.60
2019-03-23T14:04:56.435Z,70.03
2019-03-23T14:07:25.073Z,92.17
2019-03-23T14:09:53.695Z,84.77
2019-03-23T14:12:22.107Z,88.87
2019-03-23T14:14:50.755Z,72.67
2019-03-23T14:17:19.380Z,81.63
2019-03-23T14:19:48.013Z,84.23
2019-03-23T14:22:16.708Z,75.87
2019-03-23T14:24:45.102Z,74.20
2019-03-23T14:27:13.499Z,87.53
2019-03-23T14:29:42.128Z,72.03
2019-03-23T14:32:10.772Z,85.30
2019-03-23T14:34:39.409Z,84.47
2019-03-23T14:37:07.952Z,78.57
2019-03-23T14:39:36.349Z,73.93
2019-03-23T14:42:05.360Z,80.43
2019-03-23T14:44:33.758Z,94.00
2019-03-23T14:47:02.195Z,78.00
2019-03-23T14:49:30.822Z,77.40
2019-03-23T14:51:59.482Z,84.40
2019-03-23T14:54:28.117Z,81.47
2019-03-23T14:56:56.522Z,77.07
2019-03-23T14:59:25.146Z,82.70
2019-03-23T15:01:53.773Z,78.07
2019-03-23T15:04:22.183Z,89.00
2019-03-23T15:06:50.568Z,80.47
2019-03-23T15:09:18.979Z,83.43
2019-03-23T15:11:47.972Z,101.23
2019-03-23T15:14:17.186Z,84.93
2019-03-23T15:16:45.833Z,86.50
2019-03-23T15:19:15.686Z,83.43
2019-03-23T15:21:44.363Z,85.23
2019-03-23T15:24:12.754Z,88.00
2019-03-23T15:26:41.142Z,91.50
2019-03-23T15:29:09.535Z,91.70
2019-03-23T15:31:37.923Z,90.20
2019-03-23T15:34:06.325Z,97.03
2019-03-23T15:36:34.710Z,86.43
2019-03-23T15:39:04.367Z,95.57
2019-03-23T15:41:32.771Z,95.17
2019-03-23T15:44:01.149Z,82.60
2019-03-23T15:46:29.562Z,99.23
2019-03-23T15:48:58.188Z,85.60
2019-03-23T15:51:26.646Z,83.00
2019-03-23T15:53:55.283Z,85.10
2019-03-23T15:56:23.671Z,89.20
2019-03-23T15:58:52.394Z,91.07
2019-03-23T16:01:20.861Z,102.13
2019-03-23T16:03:49.243Z,95.30
2019-03-23T16:06:17.872Z,90.27
2019-03-23T16:08:46.260Z,105.20
2019-03-23T16:11:14.663Z,99.37
2019-03-23T16:13:43.283Z,88.60
2019-03-23T16:16:11.677Z,92.63
2019-03-23T16:18:40.074Z,102.57
2019-03-23T16:21:08.461Z,99.53
2019-03-23T16:23:36.862Z,99.17
2019-03-23T16:26:05.247Z,90.23
2019-03-23T16:28:33.633Z,103.70
2019-03-23T16:31:02.030Z,88.67
2019-03-23T16:33:30.417Z,86.43
2019-03-23T16:35:59.065Z,88.20
2019-03-23T16:38:27.452Z,92.97
2019-03-23T16:40:55.835Z,86.30
2019-03-23T16:43:24.467Z,92.17
2019-03-23T16:45:53.265Z,105.63
2019-03-23T16:48:21.674Z,119.57
2019-03-23T16:50:50.294Z,98.53
2019-03-23T16:53:18.683Z,86.83
2019-03-23T16:55:47.311Z,99.30
2019-03-23T16:58:16.565Z,93.43
2019-03-23T17:00:45.151Z,95.23
2019-03-23T17:03:13.808Z,108.20
2019-03-23T17:05:42.506Z,111.27
2019-03-23T17:08:11.153Z,108.30
2019-03-23T17:10:39.785Z,111.07
2019-03-23T17:13:08.195Z,108.43
2019-03-23T17:15:36.657Z,126.73
2019-03-23T17:18:05.371Z,119.47
2019-03-23T17:20:33.765Z,156.37
2019-03-23T17:23:02.158Z,130.33
2019-03-23T17:25:30.876Z,117.93
2019-03-23T17:27:59.509Z,128.83
2019-03-23T17:30:28.141Z,120.53
2019-03-23T17:32:56.545Z,128.87
2019-03-23T17:35:25.269Z,114.53
2019-03-23T17:37:53.663Z,122.10
2019-03-23T17:40:22.056Z,125.77
2019-03-23T17:42:50.468Z,128.23
2019-03-23T17:45:18.874Z,135.43
2019-03-23T17:47:47.535Z,111.23
2019-03-23T17:50:15.928Z,131.03
2019-03-23T17:52:44.650Z,122.60
2019-03-23T17:55:13.229Z,126.73
2019-03-23T17:57:41.623Z,114.37
2019-03-23T18:00:11.341Z,109.87
2019-03-23T18:02:39.801Z,112.87
2019-03-23T18:05:09.172Z,128.57
2019-03-23T18:07:37.650Z,141.53
2019-03-23T18:10:08.816Z,136.83
2019-03-23T18:12:37.219Z,128.60
2019-03-23T18:15:07.348Z,128.00
2019-03-23T18:17:35.782Z,115.67
2019-03-23T18:20:05.265Z,123.53
2019-03-23T18:22:33.849Z,140.33
2019-03-23T18:25:02.304Z,110.83
2019-03-23T18:27:30.928Z,121.30
2019-03-23T18:29:59.567Z,107.43
2019-03-23T18:32:28.191Z,133.63
2019-03-23T18:34:56.629Z,120.83
2019-03-23T18:37:25.009Z,124.30
2019-03-23T18:39:53.636Z,134.37
2019-03-23T18:42:22.043Z,140.20
2019-03-23T18:44:50.681Z,150.27
2019-03-23T18:47:19.318Z,142.73
2019-03-23T18:49:47.723Z,166.97
2019-03-23T18:52:16.118Z,153.87
2019-03-23T18:54:44.753Z,151.37
2019-03-23T18:57:13.160Z,129.87
2019-03-23T18:59:41.558Z,127.03
2019-03-23T19:02:10.176Z,135.00
2019-03-23T19:04:38.580Z,143.47
2019-03-23T19:07:07.226Z,116.00
2019-03-23T19:09:35.614Z,130.60
2019-03-23T19:12:04.024Z,124.47
2019-03-23T19:14:32.413Z,135.10
2019-03-23T19:17:01.058Z,140.03
2019-03-23T19:19:29.470Z,134.03
2019-03-23T19:21:57.855Z,120.53
2019-03-23T19:24:26.524Z,105.17
2019-03-23T19:26:55.164Z,125.33
2019-03-23T19:29:23.560Z,137.20
2019-03-23T19:31:52.185Z,108.67
2019-03-23T19:34:20.907Z,111.33
2019-03-23T19:36:49.292Z,109.83
2019-03-23T19:39:17.696Z,110.50
2019-03-23T19:41:46.344Z,113.23
2019-03-23T19:44:14.863Z,113.33
2019-03-23T19:46:43.318Z,121.33
2019-03-23T19:49:11.724Z,135.20
2019-03-23T19:51:40.373Z,138.03
2019-03-23T19:54:08.762Z,114.30
2019-03-23T19:56:37.187Z,103.27
2019-03-23T19:59:05.569Z,106.53
2019-03-23T20:01:34.017Z,132.83
2019-03-23T20:04:02.659Z,120.13
2019-03-23T20:06:31.296Z,125.33
2019-03-23T20:08:59.770Z,133.13
2019-03-23T20:11:28.498Z,120.73
2019-03-23T20:13:58.964Z,127.57
2019-03-23T20:16:27.333Z,127.67
2019-03-23T20:18:55.865Z,122.27
2019-03-23T20:21:24.257Z,125.40
2019-03-23T20:23:52.891Z,155.03
2019-03-23T20:26:21.301Z,133.50
2019-03-23T20:28:49.749Z,128.47
2019-03-23T20:31:18.169Z,124.10
2019-03-23T20:33:46.904Z,114.47
2019-03-23T20:36:15.385Z,130.40
2019-03-23T20:38:44.015Z,133.00
2019-03-23T20:41:12.430Z,133.83
2019-03-23T20:43:41.125Z,134.33
2019-03-23T20:46:09.513Z,145.80
2019-03-23T20:48:38.489Z,159.77
2019-03-23T20:51:07.125Z,155.80
2019-03-23T20:53:35.656Z,149.20
2019-03-23T20:56:10.145Z,157.77
2019-03-23T20:58:44.308Z,146.97
2019-03-23T21:01:12.934Z,171.43
2019-03-23T21:03:41.574Z,148.33
2019-03-23T21:06:12.531Z,158.03
2019-03-23T21:08:40.552Z,158.40
2019-03-23T21:11:09.904Z,149.47
2019-03-23T21:13:38.360Z,152.10
2019-03-23T21:16:09.023Z,155.43
2019-03-23T21:18:37.387Z,178.03
2019-03-23T21:21:06.688Z,165.83
2019-03-23T21:23:35.076Z,193.53
2019-03-23T21:26:03.491Z,157.23
2019-03-23T21:28:32.112Z,157.60
2019-03-23T21:31:00.572Z,165.43
2019-03-23T21:33:32.083Z,159.20
2019-03-23T21:36:01.301Z,187.73
2019-03-23T21:38:29.787Z,175.67
2019-03-23T21:40:58.281Z,182.17
2019-03-23T21:43:26.917Z,183.47
2019-03-23T21:45:55.557Z,179.93
2019-03-23T21:48:23.956Z,170.83
2019-03-23T21:50:52.353Z,198.80
2019-03-23T21:53:20.749Z,192.60
2019-03-23T21:55:49.393Z,196.97
2019-03-23T21:58:17.792Z,184.90
2019-03-23T22:00:46.192Z,189.73
2019-03-23T22:03:14.588Z,186.33
2019-03-23T22:05:43.220Z,184.80
2019-03-23T22:08:11.624Z,185.50
2019-03-23T22:10:40.012Z,169.23
2019-03-23T22:13:08.649Z,227.37
2019-03-23T22:15:37.056Z,210.50
2019-03-23T22:18:05.762Z,209.83
2019-03-23T22:20:34.154Z,201.80
2019-03-23T22:23:02.790Z,209.27
2019-03-23T22:25:31.194Z,208.33
2019-03-23T22:27:59.648Z,198.10
2019-03-23T22:30:28.062Z,219.20
2019-03-23T22:32:56.684Z,209.63
2019-03-23T22:35:25.330Z,249.77
2019-03-23T22:37:53.727Z,225.80
2019-03-23T22:40:22.127Z,214.07
2019-03-23T22:42:50.752Z,215.57
2019-03-23T22:45:19.335Z,227.13
2019-03-23T22:47:47.969Z,216.77
2019-03-23T22:50:16.374Z,241.97
2019-03-23T22:52:44.759Z,233.70
2019-03-23T22:55:13.393Z,220.93
2019-03-23T22:57:41.891Z,238.83
2019-03-23T23:00:17.449Z,228.90
2019-03-23T23:02:46.211Z,234.67
2019-03-23T23:05:14.918Z,224.67
2019-03-23T23:07:43.303Z,243.10
2019-03-23T23:10:12.195Z,243.93
2019-03-23T23:12:40.819Z,245.03
2019-03-23T23:15:09.606Z,245.57
2019-03-23T23:17:38.231Z,235.33
2019-03-23T23:20:07.804Z,247.90
2019-03-23T23:22:36.189Z,242.97
2019-03-23T23:25:07.269Z,240.33
2019-03-23T23:27:36.083Z,280.13
2019-03-23T23:30:07.464Z,242.17
2019-03-23T23:32:36.249Z,262.43
2019-03-23T23:35:08.821Z,248.53
2019-03-23T23:37:38.368Z,239.93
2019-03-23T23:40:07.771Z,267.70
2019-03-23T23:42:36.469Z,256.90
2019-03-23T23:45:15.373Z,260.40
2019-03-23T23:47:38.967Z,264.77
2019-03-23T23:50:09.407Z,277.93
2019-03-23T23:52:38.109Z,258.77
2019-03-23T23:55:07.157Z,252.90
2019-03-23T23:57:35.541Z,269.70
